Time;durP1;ratioP1;P1;durP2;ratioP2;P2;SDS_P1;SDS_P2;PMS_P1;PMS_P2;Temp;Humidity;BMP_temperature;BMP_pressure;BME280_temperature;BME280_humidity;BME280_pressure;Samples;Min_cycle;Max_cycle;Signal;HPM_P1;HPM_P2
2022/01/04 00:01:14;;;;;;;0.85;0.70;;;17.30;63.70;;;;;;5105010;28;20036;-58
2022/01/04 00:03:41;;;;;;;0.90;0.80;;;17.30;63.60;;;;;;5104278;28;20488;-57
2022/01/04 00:06:08;;;;;;;0.70;0.70;;;17.20;63.40;;;;;;5104432;28;20146;-57
2022/01/04 00:08:34;;;;;;;0.70;0.70;;;17.20;63.50;;;;;;5104439;28;20071;-57
2022/01/04 00:13:22;;;;;;;0.77;0.77;;;17.20;64.20;;;;;;5104573;28;20032;-57
2022/01/04 00:13:56;;;;;;;0.77;0.77;;;17.30;64.30;;;;;;5094977;28;20747;-57
2022/01/04 00:16:22;;;;;;;0.70;0.70;;;17.30;64.10;;;;;;5104568;28;20028;-57
2022/01/04 00:18:48;;;;;;;0.65;0.65;;;17.30;63.70;;;;;;5104221;28;20074;-56
2022/01/04 00:21:14;;;;;;;0.68;0.63;;;17.30;63.50;;;;;;5104544;28;20032;-58
2022/01/04 00:23:41;;;;;;;0.80;0.80;;;17.20;63.40;;;;;;5104131;28;20035;-58
2022/01/04 00:26:07;;;;;;;0.90;0.90;;;17.20;63.60;;;;;;5104281;28;20024;-57
2022/01/04 00:28:33;;;;;;;0.80;0.70;;;17.20;64.00;;;;;;5092953;28;21120;-58
2022/01/04 00:30:59;;;;;;;0.82;0.60;;;17.20;64.20;;;;;;5103942;28;20027;-57
2022/01/04 00:33:25;;;;;;;0.70;0.70;;;17.30;64.20;;;;;;5102109;28;20439;-58
2022/01/04 00:35:51;;;;;;;0.90;0.80;;;17.30;64.10;;;;;;5103998;28;20048;-57
2022/01/04 00:38:17;;;;;;;0.70;0.65;;;17.30;63.60;;;;;;5103988;28;20048;-58
2022/01/04 00:40:43;;;;;;;0.60;0.60;;;17.30;63.50;;;;;;5104319;28;20024;-57
2022/01/04 00:43:10;;;;;;;0.93;0.90;;;17.20;63.50;;;;;;5103976;28;20113;-58
2022/01/04 00:45:37;;;;;;;0.90;0.90;;;17.10;63.60;;;;;;5103521;28;20031;-58
2022/01/04 00:50:31;;;;;;;0.70;0.70;;;17.20;64.10;;;;;;5104059;28;20040;-58
2022/01/04 00:52:58;;;;;;;0.93;0.88;;;17.30;64.10;;;;;;5104013;28;20545;-57
2022/01/04 00:55:24;;;;;;;0.88;0.73;;;17.30;64.00;;;;;;5103644;28;20123;-58
2022/01/04 00:57:50;;;;;;;1.05;0.80;;;17.30;63.60;;;;;;5102478;28;20051;-59
2022/01/04 01:00:17;;;;;;;1.10;1.00;;;17.30;63.50;;;;;;5103562;28;20446;-57
2022/01/04 01:02:43;;;;;;;1.10;0.95;;;17.20;63.50;;;;;;5103519;28;20032;-58
2022/01/04 01:05:09;;;;;;;0.80;0.80;;;17.20;64.10;;;;;;5103410;28;20028;-58
2022/01/04 01:07:36;;;;;;;0.87;0.87;;;17.30;64.20;;;;;;5103281;28;20068;-57
2022/01/04 01:12:48;;;;;;;0.80;0.80;;;17.30;64.00;;;;;;5103507;28;20085;-58
2022/01/04 01:15:14;;;;;;;0.80;0.70;;;17.30;63.50;;;;;;5103262;28;20159;-58
2022/01/04 01:17:41;;;;;;;0.80;0.80;;;17.20;63.50;;;;;;5103062;28;20058;-59
2022/01/04 01:20:08;;;;;;;1.20;1.10;;;17.20;63.50;;;;;;5103379;28;20044;-58
2022/01/04 01:22:34;;;;;;;1.83;0.95;;;17.10;63.90;;;;;;5103453;28;20050;-58
2022/01/04 01:25:00;;;;;;;1.17;1.10;;;17.20;64.20;;;;;;5102951;28;20468;-58
2022/01/04 01:27:27;;;;;;;0.70;0.70;;;17.30;64.20;;;;;;5102134;28;20038;-58
2022/01/04 01:29:53;;;;;;;1.13;0.90;;;17.30;64.10;;;;;;5102728;28;20551;-58
2022/01/04 01:32:19;;;;;;;0.90;0.85;;;17.30;63.60;;;;;;5102943;28;20016;-59
2022/01/04 01:34:45;;;;;;;0.98;0.95;;;17.30;63.60;;;;;;5102866;28;20602;-58
2022/01/04 01:37:11;;;;;;;1.33;1.15;;;17.20;63.50;;;;;;5103162;28;20115;-58
2022/01/04 01:39:37;;;;;;;1.33;0.98;;;17.10;63.70;;;;;;5102649;28;20044;-58
2022/01/04 01:42:04;;;;;;;1.10;0.90;;;17.20;64.20;;;;;;5103171;28;20016;-58
2022/01/04 01:44:33;;;;;;;0.98;0.90;;;17.20;64.10;;;;;;5103057;28;20133;-60
2022/01/04 01:46:59;;;;;;;1.00;0.85;;;17.30;64.00;;;;;;5102700;28;20036;-58
2022/01/04 01:49:25;;;;;;;0.98;0.93;;;17.30;63.70;;;;;;5102750;28;20058;-58
2022/01/04 01:51:52;;;;;;;0.82;0.80;;;17.30;63.50;;;;;;5102961;28;20028;-58
2022/01/04 01:54:18;;;;;;;1.17;1.05;;;17.20;63.40;;;;;;5100532;28;20042;-58
2022/01/04 01:56:44;;;;;;;1.00;0.93;;;17.20;63.90;;;;;;5102836;28;20044;-58
2022/01/04 01:59:12;;;;;;;0.95;0.80;;;17.20;64.00;;;;;;5101596;28;20032;-58
2022/01/04 02:01:38;;;;;;;1.20;1.05;;;17.30;64.00;;;;;;5118149;28;20070;-59
2022/01/04 02:04:04;;;;;;;1.17;1.08;;;17.30;64.00;;;;;;5102316;28;20032;-58
2022/01/04 02:06:31;;;;;;;0.70;0.70;;;17.30;63.50;;;;;;5102662;28;20031;-58
2022/01/04 02:09:00;;;;;;;1.20;1.10;;;17.30;63.50;;;;;;5101169;28;20109;-58
2022/01/04 02:11:30;;;;;;;0.77;0.70;;;17.20;63.50;;;;;;5102112;28;20027;-58
2022/01/04 02:13:59;;;;;;;1.30;1.10;;;17.10;63.90;;;;;;5102693;28;20043;-58
2022/01/04 02:16:26;;;;;;;1.08;0.98;;;17.20;64.10;;;;;;5102289;28;20024;-59
2022/01/04 02:18:52;;;;;;;1.20;0.90;;;17.30;64.00;;;;;;5102103;28;20063;-58
2022/01/04 02:21:18;;;;;;;1.13;1.02;;;17.30;63.90;;;;;;5117495;28;20024;-57
2022/01/04 02:23:45;;;;;;;1.10;1.00;;;17.30;63.40;;;;;;5102580;28;20047;-58
2022/01/04 02:26:11;;;;;;;1.40;0.90;;;17.20;63.40;;;;;;5102138;28;20504;-58
2022/01/04 02:28:37;;;;;;;1.25;1.15;;;17.10;63.40;;;;;;5101484;28;20067;-58
2022/01/04 02:31:03;;;;;;;1.15;1.05;;;17.10;63.90;;;;;;5102302;28;20088;-59
2022/01/04 02:33:29;;;;;;;1.30;1.20;;;17.20;64.00;;;;;;5102337;28;20058;-58
2022/01/04 02:35:55;;;;;;;1.15;1.05;;;17.20;64.00;;;;;;5102180;28;20034;-58
2022/01/04 02:38:21;;;;;;;1.17;1.00;;;17.30;64.00;;;;;;5102051;28;20032;-59
2022/01/04 02:40:47;;;;;;;1.20;1.10;;;17.30;63.50;;;;;;5103978;28;20028;-58
2022/01/04 02:43:13;;;;;;;1.20;1.10;;;17.20;63.40;;;;;;5105945;28;20087;-59
2022/01/04 02:45:39;;;;;;;1.63;1.20;;;17.10;63.40;;;;;;5105899;28;20115;-59
2022/01/04 02:48:06;;;;;;;0.70;0.70;;;17.10;63.90;;;;;;5105833;28;20043;-58
2022/01/04 02:50:32;;;;;;;1.15;1.00;;;17.20;64.10;;;;;;5106148;28;20028;-59
2022/01/04 02:52:58;;;;;;;1.10;0.90;;;17.30;64.00;;;;;;5106052;28;20024;-59
2022/01/04 02:55:24;;;;;;;1.10;1.00;;;17.30;64.00;;;;;;5105893;28;20086;-59
2022/01/04 02:57:50;;;;;;;1.00;0.95;;;17.30;63.60;;;;;;5104503;28;20062;-58
2022/01/04 03:00:17;;;;;;;1.30;1.20;;;17.20;63.50;;;;;;5106041;28;20032;-58
2022/01/04 03:02:44;;;;;;;1.10;1.00;;;17.20;63.50;;;;;;5105673;28;20028;-58
2022/01/04 03:05:10;;;;;;;;;;;17.10;63.60;;;;;;5106267;28;20058;-58
2022/01/04 03:07:36;;;;;;;0.90;0.90;;;17.10;63.90;;;;;;5105275;28;19996;-59
2022/01/04 03:10:03;;;;;;;1.15;0.90;;;17.20;64.10;;;;;;5105758;28;20036;-58
2022/01/04 03:12:29;;;;;;;1.02;0.93;;;17.30;64.00;;;;;;5105800;28;20034;-59
2022/01/04 03:14:56;;;;;;;1.05;0.90;;;17.30;63.90;;;;;;5105897;28;20058;-59
2022/01/04 03:17:22;;;;;;;1.30;1.08;;;17.30;63.60;;;;;;5104550;28;20392;-58
2022/01/04 03:19:48;;;;;;;1.90;1.10;;;17.20;63.50;;;;;;5105434;28;20059;-59
2022/01/04 03:22:14;;;;;;;1.20;1.05;;;17.10;63.60;;;;;;5105447;28;20031;-59
2022/01/04 03:24:40;;;;;;;0.80;0.80;;;17.10;64.00;;;;;;5105588;28;20808;-58
2022/01/04 03:27:06;;;;;;;1.13;0.80;;;17.20;64.10;;;;;;5104339;28;20028;-58
2022/01/04 03:29:32;;;;;;;0.93;0.93;;;17.20;64.00;;;;;;5105070;28;20087;-58
2022/01/04 03:31:59;;;;;;;1.25;0.88;;;17.30;64.00;;;;;;5105153;28;20024;-57
2022/01/04 03:34:25;;;;;;;1.15;1.02;;;17.30;63.80;;;;;;5105163;28;20121;-59
2022/01/04 03:36:51;;;;;;;1.30;1.10;;;17.20;63.40;;;;;;5104711;28;20032;-59
2022/01/04 03:39:17;;;;;;;1.30;0.88;;;17.10;63.50;;;;;;5105091;28;20043;-58
2022/01/04 03:41:44;;;;;;;1.85;1.05;;;17.10;64.00;;;;;;5105158;28;20024;-58
2022/01/04 03:44:16;;;;;;;1.33;1.00;;;17.20;64.10;;;;;;5105063;28;20032;-58
2022/01/04 03:46:42;;;;;;;1.23;0.98;;;17.30;64.10;;;;;;5103985;28;20024;-58
2022/01/04 03:49:09;;;;;;;1.13;1.02;;;17.30;64.00;;;;;;5104668;28;20665;-58
2022/01/04 03:51:35;;;;;;;1.92;1.00;;;17.30;63.60;;;;;;5104053;28;20032;-58
2022/01/04 03:54:02;;;;;;;1.30;1.20;;;17.20;63.50;;;;;;5104766;28;20028;-58
2022/01/04 03:56:28;;;;;;;;;;;17.10;63.60;;;;;;5105178;28;20027;-58
2022/01/04 03:58:54;;;;;;;1.10;1.00;;;17.10;63.80;;;;;;5102218;28;19916;-58
2022/01/04 04:01:20;;;;;;;1.23;1.13;;;17.20;64.20;;;;;;5104494;28;20500;-58
2022/01/04 04:03:46;;;;;;;1.27;1.13;;;17.30;64.00;;;;;;5104864;28;20089;-58
2022/01/04 04:06:12;;;;;;;1.13;1.00;;;17.30;64.00;;;;;;5104567;28;20024;-59
2022/01/04 04:08:39;;;;;;;1.00;0.90;;;17.30;63.70;;;;;;5103918;28;20048;-58
2022/01/04 04:11:05;;;;;;;1.17;1.08;;;17.20;63.50;;;;;;5104566;28;20024;-58
2022/01/04 04:13:31;;;;;;;1.10;1.00;;;17.20;63.60;;;;;;5104432;28;20035;-58
2022/01/04 04:15:57;;;;;;;1.38;1.13;;;17.10;63.80;;;;;;5104060;28;20016;-59
2022/01/04 04:18:23;;;;;;;1.25;1.00;;;17.20;64.20;;;;;;5103889;28;20100;-59
2022/01/04 04:20:50;;;;;;;0.85;0.80;;;17.20;63.90;;;;;;5103796;28;20652;-58
2022/01/04 04:23:16;;;;;;;0.82;0.77;;;17.30;63.90;;;;;;5103840;28;20035;-59
2022/01/04 04:25:42;;;;;;;0.88;0.85;;;17.30;63.70;;;;;;5104393;28;20119;-58
2022/01/04 04:28:08;;;;;;;1.08;0.88;;;17.20;63.50;;;;;;5103184;28;20473;-59
2022/01/04 04:30:34;;;;;;;1.30;1.20;;;17.10;63.50;;;;;;5104077;28;20036;-59
2022/01/04 04:33:00;;;;;;;1.38;1.27;;;17.10;63.70;;;;;;5103897;28;20028;-59
2022/01/04 04:35:27;;;;;;;1.00;0.90;;;17.10;64.10;;;;;;5098193;28;20028;-58
2022/01/04 04:37:53;;;;;;;1.17;0.90;;;17.20;64.00;;;;;;5083365;28;20039;-59
2022/01/04 04:40:19;;;;;;;1.08;0.90;;;17.30;64.00;;;;;;5083784;28;20029;-58
2022/01/04 04:42:45;;;;;;;1.00;0.90;;;17.30;63.80;;;;;;5098934;28;20032;-59
2022/01/04 04:45:11;;;;;;;1.00;0.90;;;17.30;63.50;;;;;;5103965;28;20035;-58
2022/01/04 04:47:37;;;;;;;1.10;1.00;;;17.20;63.50;;;;;;5103472;28;20024;-58
2022/01/04 04:50:04;;;;;;;1.20;1.10;;;17.10;63.60;;;;;;5103445;28;20024;-59
2022/01/04 04:52:30;;;;;;;1.50;1.08;;;17.10;64.00;;;;;;5103979;28;20020;-58
2022/01/04 04:54:56;;;;;;;0.98;0.82;;;17.20;64.10;;;;;;5103555;28;20716;-58
2022/01/04 04:57:23;;;;;;;1.00;0.80;;;17.20;63.80;;;;;;5099250;28;20024;-58
2022/01/04 04:59:49;;;;;;;0.80;0.80;;;17.30;63.80;;;;;;5082972;28;20113;-58
2022/01/04 05:02:15;;;;;;;1.08;0.98;;;17.20;63.60;;;;;;5082962;28;20032;-58
2022/01/04 05:04:41;;;;;;;1.23;0.95;;;17.20;63.50;;;;;;5082658;28;20028;-59
2022/01/04 05:07:07;;;;;;;1.00;0.88;;;17.10;63.60;;;;;;5102890;28;20059;-57
2022/01/04 05:09:33;;;;;;;1.10;1.00;;;17.10;64.00;;;;;;5103065;28;20135;-59
2022/01/04 05:11:59;;;;;;;0.80;0.80;;;17.20;64.00;;;;;;5103559;28;20072;-59
2022/01/04 05:14:25;;;;;;;1.20;1.10;;;17.30;64.00;;;;;;5103275;28;20031;-59
2022/01/04 05:16:52;;;;;;;1.08;0.95;;;17.30;63.80;;;;;;5103246;28;20032;-58
2022/01/04 05:19:18;;;;;;;1.20;1.10;;;17.20;63.40;;;;;;5102840;28;20040;-57
2022/01/04 05:21:44;;;;;;;0.90;0.82;;;17.20;63.50;;;;;;5103214;28;20031;-58
2022/01/04 05:24:11;;;;;;;1.48;1.02;;;17.10;63.60;;;;;;5103187;28;20032;-58
2022/01/04 05:26:38;;;;;;;1.15;1.05;;;17.10;64.00;;;;;;5103119;28;20050;-59
2022/01/04 05:29:04;;;;;;;1.23;1.00;;;17.20;64.10;;;;;;5102571;28;20039;-58
2022/01/04 05:31:30;;;;;;;1.10;0.98;;;17.20;63.90;;;;;;5102781;28;20024;-58
2022/01/04 05:33:56;;;;;;;1.00;0.90;;;17.30;63.90;;;;;;5102911;28;20031;-58
2022/01/04 05:36:22;;;;;;;2.35;1.20;;;17.30;63.80;;;;;;5089580;28;20029;-59
2022/01/04 05:38:48;;;;;;;1.65;1.13;;;17.20;63.40;;;;;;5087064;28;20065;-58
2022/01/04 05:41:15;;;;;;;1.27;1.05;;;17.10;63.50;;;;;;5102971;28;20235;-58
2022/01/04 05:43:41;;;;;;;0.88;0.88;;;17.10;63.90;;;;;;5103039;28;20028;-58
2022/01/04 05:46:07;;;;;;;1.50;1.00;;;17.20;64.00;;;;;;5102779;28;20085;-59
2022/01/04 05:48:33;;;;;;;1.45;1.10;;;17.20;63.90;;;;;;5102542;28;20137;-59
2022/01/04 05:50:59;;;;;;;1.10;1.00;;;17.30;63.90;;;;;;5102856;28;20122;-58
2022/01/04 05:53:25;;;;;;;1.20;1.10;;;17.30;63.50;;;;;;5102814;28;20083;-58
2022/01/04 05:55:52;;;;;;;1.15;0.90;;;17.20;63.40;;;;;;5102521;28;20020;-58
2022/01/04 05:58:18;;;;;;;1.20;0.98;;;17.10;63.60;;;;;;5093635;28;20032;-58
2022/01/04 06:00:44;;;;;;;0.98;0.88;;;17.10;63.90;;;;;;5102621;28;20042;-58
2022/01/04 06:03:10;;;;;;;1.10;1.00;;;17.10;64.00;;;;;;5102416;28;20027;-58
2022/01/04 06:05:36;;;;;;;1.20;1.10;;;17.20;63.90;;;;;;5102284;28;20044;-59
2022/01/04 06:08:02;;;;;;;1.77;0.93;;;17.30;63.80;;;;;;5102787;28;20052;-58
2022/01/04 06:10:36;;;;;;;1.25;1.15;;;17.30;63.60;;;;;;5102723;28;20050;-59
2022/01/04 06:15:28;;;;;;;1.27;1.13;;;17.10;63.40;;;;;;5105753;28;20035;-59
2022/01/04 06:17:55;;;;;;;1.10;1.00;;;17.00;63.60;;;;;;5106288;28;20434;-58
2022/01/04 06:20:22;;;;;;;1.33;1.23;;;17.10;64.00;;;;;;5106548;28;20024;-59
2022/01/04 06:22:51;;;;;;;1.23;0.90;;;17.20;63.80;;;;;;5106781;28;20036;-59
2022/01/04 06:25:19;;;;;;;1.17;1.05;;;17.30;63.80;;;;;;5105046;28;20027;-58
2022/01/04 06:27:47;;;;;;;1.27;1.17;;;17.30;63.80;;;;;;5098712;28;20036;-59
2022/01/04 06:30:17;;;;;;;1.20;1.10;;;17.30;63.50;;;;;;5084948;28;20024;-58
2022/01/04 06:32:44;;;;;;;1.75;1.10;;;17.20;63.40;;;;;;5086197;28;20032;-59
2022/01/04 06:35:10;;;;;;;1.77;1.20;;;17.10;63.60;;;;;;5085888;28;20024;-58
2022/01/04 06:37:36;;;;;;;1.38;1.27;;;17.10;63.90;;;;;;5085916;28;20032;-58
2022/01/04 06:40:03;;;;;;;1.85;1.45;;;17.20;64.00;;;;;;5086265;28;20040;-58
2022/01/04 06:42:29;;;;;;;1.20;1.10;;;17.30;63.90;;;;;;5099374;28;20051;-59
2022/01/04 06:44:55;;;;;;;1.52;1.00;;;17.30;63.80;;;;;;5106226;28;20055;-59
2022/01/04 06:47:21;;;;;;;2.25;1.20;;;17.30;63.40;;;;;;5105949;28;20062;-59
2022/01/04 06:49:47;;;;;;;1.20;1.10;;;17.20;63.40;;;;;;5106227;28;20789;-58
2022/01/04 06:52:13;;;;;;;1.80;1.55;;;17.10;63.50;;;;;;5106111;28;20047;-58
2022/01/04 06:54:39;;;;;;;1.30;1.20;;;17.10;63.80;;;;;;5106428;28;20028;-58
2022/01/04 06:57:06;;;;;;;1.58;1.20;;;17.20;63.90;;;;;;5103629;28;20054;-57
2022/01/04 06:59:32;;;;;;;1.48;1.23;;;17.20;63.70;;;;;;5085714;28;20102;-58
2022/01/04 07:02:00;;;;;;;1.35;1.15;;;17.30;63.60;;;;;;5086131;28;20028;-59
2022/01/04 07:04:26;;;;;;;1.20;1.10;;;17.30;63.40;;;;;;5085675;28;20039;-59
2022/01/04 07:06:52;;;;;;;1.17;1.08;;;17.20;63.30;;;;;;5103456;28;20052;-58
2022/01/04 07:09:18;;;;;;;1.48;1.38;;;17.10;63.50;;;;;;5105639;28;20060;-58
2022/01/04 07:11:44;;;;;;;1.40;1.27;;;17.10;63.80;;;;;;5105937;28;20028;-58
2022/01/04 07:14:10;;;;;;;1.88;1.20;;;17.20;63.80;;;;;;5105850;28;20028;-58
2022/01/04 07:16:36;;;;;;;1.80;1.30;;;17.20;63.70;;;;;;5105420;28;20096;-59
2022/01/04 07:19:03;;;;;;;1.60;1.25;;;17.30;63.80;;;;;;5105713;28;20140;-59
2022/01/04 07:21:29;;;;;;;1.40;1.10;;;17.30;63.40;;;;;;5105833;28;20032;-59
2022/01/04 07:23:55;;;;;;;1.20;1.10;;;17.20;63.30;;;;;;5105586;28;20028;-59
2022/01/04 07:26:22;;;;;;;1.85;1.50;;;17.10;63.40;;;;;;5104900;28;20046;-59
2022/01/04 07:28:48;;;;;;;1.13;0.80;;;17.10;63.80;;;;;;5088581;28;20039;-58
2022/01/04 07:31:15;;;;;;;1.33;1.23;;;17.20;63.90;;;;;;5085310;28;20056;-58
2022/01/04 07:33:41;;;;;;;1.20;1.10;;;17.20;63.70;;;;;;5085198;28;20024;-59
2022/01/04 07:36:07;;;;;;;1.40;1.30;;;17.30;63.80;;;;;;5096469;28;20058;-58
2022/01/04 07:38:34;;;;;;;1.37;1.27;;;17.30;63.40;;;;;;5105159;28;20431;-58
2022/01/04 07:41:01;;;;;;;1.20;1.10;;;17.20;63.30;;;;;;5105126;28;20075;-59
2022/01/04 07:43:27;;;;;;;1.40;1.30;;;17.10;63.40;;;;;;5103664;28;20036;-58
2022/01/04 07:45:53;;;;;;;1.38;1.27;;;17.10;63.80;;;;;;5105428;28;20255;-59
2022/01/04 07:48:22;;;;;;;1.23;1.13;;;17.10;63.80;;;;;;5104715;28;20024;-58
2022/01/04 07:50:49;;;;;;;1.40;1.23;;;17.20;63.70;;;;;;5105269;28;20040;-59
2022/01/04 07:53:15;;;;;;;1.27;1.10;;;17.30;63.70;;;;;;5084913;28;20119;-58
2022/01/04 07:55:41;;;;;;;1.50;1.40;;;17.30;63.50;;;;;;5084975;28;20122;-58
2022/01/04 07:58:07;;;;;;;1.83;1.38;;;17.20;63.30;;;;;;5084361;28;20040;-58
2022/01/04 08:00:34;;;;;;;1.30;1.20;;;17.10;63.30;;;;;;5093067;28;20766;-59
2022/01/04 08:03:00;;;;;;;1.38;1.20;;;17.10;63.50;;;;;;5104905;28;20028;-59
2022/01/04 08:05:26;;;;;;;1.40;1.30;;;17.10;63.80;;;;;;5104802;28;20032;-58
2022/01/04 08:07:52;;;;;;;1.25;1.15;;;17.20;63.70;;;;;;5104047;28;20032;-58
2022/01/04 08:10:18;;;;;;;1.15;1.05;;;17.30;63.60;;;;;;5104892;28;20028;-58
2022/01/04 08:12:45;;;;;;;1.23;1.13;;;17.30;64.20;;;;;;5104658;28;20034;-59
2022/01/04 08:15:11;;;;;;;1.27;1.13;;;17.30;63.20;;;;;;5104683;28;20028;-59
2022/01/04 08:17:38;;;;;;;1.65;1.55;;;17.20;63.30;;;;;;5104249;28;20020;-59
2022/01/04 08:20:05;;;;;;;;;;;17.10;63.40;;;;;;5105166;28;20097;-57
2022/01/04 08:22:32;;;;;;;1.27;1.10;;;17.10;63.70;;;;;;5104479;28;19965;-59
2022/01/04 08:25:00;;;;;;;;;;;17.20;63.80;;;;;;5105225;28;20028;-59
2022/01/04 08:27:26;;;;;;;1.55;1.33;;;17.20;63.50;;;;;;5099074;28;19920;-58
2022/01/04 08:29:53;;;;;;;1.42;1.33;;;17.30;63.60;;;;;;5104012;28;20036;-58
2022/01/04 08:32:19;;;;;;;1.40;1.20;;;17.30;63.30;;;;;;5104233;28;20020;-59
2022/01/04 08:34:46;;;;;;;1.38;1.27;;;17.20;63.20;;;;;;5104248;28;20035;-58
2022/01/04 08:37:12;;;;;;;1.48;1.38;;;17.10;63.40;;;;;;5083957;28;20025;-58
2022/01/04 08:39:38;;;;;;;1.40;1.30;;;17.10;63.70;;;;;;5083060;28;20032;-59
2022/01/04 08:42:04;;;;;;;1.60;1.50;;;17.20;63.70;;;;;;5093649;28;20035;-58
2022/01/04 08:44:31;;;;;;;1.30;1.20;;;17.30;63.60;;;;;;5104405;28;20089;-58
2022/01/04 08:46:57;;;;;;;2.10;1.35;;;17.30;63.60;;;;;;5102553;28;20024;-58
2022/01/04 08:49:23;;;;;;;1.25;1.15;;;17.30;63.30;;;;;;5103740;28;20051;-58
2022/01/04 08:51:50;;;;;;;1.10;1.00;;;17.20;63.10;;;;;;5104182;28;20051;-58
2022/01/04 08:54:16;;;;;;;1.30;1.20;;;17.10;63.30;;;;;;5103939;28;20035;-58
2022/01/04 08:56:43;;;;;;;1.30;1.20;;;17.10;63.60;;;;;;5103978;28;20382;-58
2022/01/04 08:59:10;;;;;;;1.20;1.10;;;17.20;63.70;;;;;;5083871;28;20495;-58
2022/01/04 09:01:36;;;;;;;2.00;1.10;;;17.30;63.60;;;;;;5085698;28;20032;-59
2022/01/04 09:04:03;;;;;;;0.77;0.77;;;17.30;63.60;;;;;;5103717;28;20035;-59
2022/01/04 09:06:29;;;;;;;1.23;1.13;;;17.30;63.20;;;;;;5104013;28;20707;-57
2022/01/04 09:08:56;;;;;;;1.00;1.00;;;17.20;63.10;;;;;;5103473;28;20408;-58
2022/01/04 09:11:23;;;;;;;1.38;1.27;;;17.10;63.20;;;;;;5103528;28;20573;-58
2022/01/04 09:13:50;;;;;;;1.58;1.20;;;17.10;63.60;;;;;;5103798;28;20552;-58
2022/01/04 09:18:48;;;;;;;1.83;1.48;;;17.20;63.40;;;;;;5103218;28;20032;-58
2022/01/04 09:21:19;;;;;;;1.30;1.20;;;17.30;63.50;;;;;;5103619;28;20032;-58
2022/01/04 09:23:46;;;;;;;1.50;1.40;;;17.30;63.20;;;;;;5103601;28;20024;-58
2022/01/04 09:26:13;;;;;;;1.50;1.10;;;17.20;63.00;;;;;;5103573;28;20043;-58
2022/01/04 09:28:39;;;;;;;1.45;1.20;;;17.10;63.10;;;;;;5087774;28;20043;-58
2022/01/04 09:31:06;;;;;;;1.35;1.25;;;17.10;63.50;;;;;;5083227;28;20029;-59
2022/01/04 09:33:32;;;;;;;1.20;1.10;;;17.20;64.20;;;;;;5082869;28;20021;-57
2022/01/04 09:35:58;;;;;;;1.52;1.30;;;17.30;63.30;;;;;;5083015;28;20021;-58
2022/01/04 09:38:25;;;;;;;1.30;1.20;;;17.30;63.30;;;;;;5082711;28;20043;-59
2022/01/04 09:40:51;;;;;;;1.38;1.23;;;17.20;63.00;;;;;;5083076;28;20377;-58
2022/01/04 09:43:17;;;;;;;1.33;1.23;;;17.10;63.00;;;;;;5102858;28;20036;-58
2022/01/04 09:45:44;;;;;;;1.30;1.10;;;17.00;63.30;;;;;;5102872;28;20031;-59
2022/01/04 09:48:10;;;;;;;1.50;1.30;;;17.10;63.50;;;;;;5102924;28;20024;-59
2022/01/04 09:50:37;;;;;;;1.23;1.13;;;17.20;63.30;;;;;;5102304;28;20034;-58
2022/01/04 09:53:06;;;;;;;1.33;1.23;;;17.30;63.30;;;;;;5103008;28;20021;-58
2022/01/04 09:55:34;;;;;;;1.42;1.30;;;17.30;63.10;;;;;;5102677;28;20024;-58
2022/01/04 09:58:00;;;;;;;1.05;0.95;;;17.20;62.90;;;;;;5100859;28;20114;-58
2022/01/04 10:00:27;;;;;;;2.25;1.25;;;17.10;63.00;;;;;;5102253;28;20028;-58
2022/01/04 10:02:53;;;;;;;1.30;1.20;;;17.10;63.30;;;;;;5102820;28;20024;-57
2022/01/04 10:05:23;;;;;;;1.67;1.35;;;17.20;63.30;;;;;;5101396;28;20066;-58
2022/01/04 10:07:59;;;;;;;2.17;1.40;;;17.20;63.20;;;;;;5102473;28;20060;-57
2022/01/04 10:10:28;;;;;;;1.50;1.40;;;17.30;63.90;;;;;;5102658;28;20047;-58
2022/01/04 10:12:59;;;;;;;1.07;0.97;;;17.30;62.90;;;;;;5102850;28;20036;-58
2022/01/04 10:15:43;;;;;;;1.42;1.20;;;17.20;62.70;;;;;;5102648;28;20100;-58
2022/01/04 10:18:18;;;;;;;1.50;1.40;;;17.10;63.00;;;;;;5102384;28;20057;-57
2022/01/04 10:20:46;;;;;;;1.52;1.40;;;17.10;63.30;;;;;;5102531;28;20052;-56
2022/01/04 10:23:12;;;;;;;;;;;17.20;63.10;;;;;;5103062;28;20153;-58
2022/01/04 10:25:39;;;;;;;1.52;1.30;;;17.30;63.00;;;;;;5102478;28;19904;-58
2022/01/04 10:28:05;;;;;;;1.53;1.40;;;17.30;63.00;;;;;;5093619;28;20447;-58
2022/01/04 10:30:32;;;;;;;1.65;1.40;;;17.30;62.80;;;;;;5099218;28;20485;-59
2022/01/04 10:33:04;;;;;;;;;;;17.20;62.60;;;;;;5102854;28;20042;-57
2022/01/04 10:35:31;;;;;;;1.70;1.60;;;17.10;62.70;;;;;;5102688;28;19908;-59
2022/01/04 10:37:59;;;;;;;1.73;1.50;;;17.00;63.00;;;;;;5102168;28;20048;-59
2022/01/04 10:40:26;;;;;;;1.48;1.30;;;17.10;63.10;;;;;;5102607;28;20101;-58
2022/01/04 10:42:53;;;;;;;1.33;1.23;;;17.20;62.90;;;;;;5102394;28;20024;-57
2022/01/04 10:45:32;;;;;;;1.40;1.30;;;17.30;62.90;;;;;;5102608;28;20042;-56
2022/01/04 10:48:19;;;;;;;1.90;1.27;;;17.30;62.70;;;;;;5102016;28;20034;-58
2022/01/04 10:50:55;;;;;;;1.40;1.30;;;17.20;62.40;;;;;;5102609;28;20111;-58
2022/01/04 10:53:34;;;;;;;1.35;1.25;;;17.10;62.50;;;;;;5082104;28;20058;-58
2022/01/04 10:56:03;;;;;;;1.40;1.30;;;17.10;62.80;;;;;;5091742;28;20020;-58
2022/01/04 10:58:31;;;;;;;1.20;1.08;;;17.20;63.00;;;;;;5100776;28;20051;-58
2022/01/04 11:01:00;;;;;;;1.40;1.30;;;17.20;62.70;;;;;;5102599;28;20016;-58
2022/01/04 11:03:28;;;;;;;1.25;1.15;;;17.30;62.80;;;;;;5105677;28;20031;-57
2022/01/04 11:06:00;;;;;;;1.42;1.30;;;17.20;62.40;;;;;;5121241;28;20040;-58
2022/01/04 11:08:26;;;;;;;1.30;1.20;;;17.20;62.40;;;;;;5105538;28;20066;-57
2022/01/04 11:10:55;;;;;;;1.60;1.20;;;17.10;62.50;;;;;;5105963;28;20777;-58
2022/01/04 11:13:21;;;;;;;1.35;1.25;;;17.10;62.90;;;;;;5085719;28;20352;-57
2022/01/04 11:15:48;;;;;;;1.48;1.25;;;17.20;62.90;;;;;;5085609;28;20040;-58
2022/01/04 11:18:14;;;;;;;1.40;1.30;;;17.30;62.70;;;;;;5085210;28;20040;-58
2022/01/04 11:20:41;;;;;;;1.50;1.30;;;17.30;62.60;;;;;;5085277;28;20481;-58
2022/01/04 11:23:07;;;;;;;1.30;1.20;;;17.30;62.40;;;;;;5104675;28;20038;-58
2022/01/04 11:25:34;;;;;;;1.60;1.30;;;17.20;62.30;;;;;;5105578;28;20024;-58
2022/01/04 11:28:03;;;;;;;1.52;1.38;;;17.10;62.40;;;;;;5096431;28;20032;-58
2022/01/04 11:30:39;;;;;;;1.25;1.10;;;17.10;62.80;;;;;;5085348;28;20036;-58
2022/01/04 11:33:20;;;;;;;1.60;1.05;;;17.20;62.70;;;;;;5085171;28;20032;-58
2022/01/04 11:35:47;;;;;;;1.58;1.23;;;17.30;62.50;;;;;;5092829;28;20032;-58
2022/01/04 11:38:13;;;;;;;1.40;1.20;;;17.30;62.50;;;;;;5103581;28;20027;-58
2022/01/04 11:40:43;;;;;;;1.38;1.27;;;17.30;62.20;;;;;;5103790;28;20040;-58
2022/01/04 11:43:27;;;;;;;1.50;1.27;;;17.20;62.10;;;;;;5105265;28;20035;-58
2022/01/04 11:45:53;;;;;;;1.20;1.10;;;17.10;62.40;;;;;;5105098;28;20053;-58
2022/01/04 11:48:25;;;;;;;1.58;1.35;;;17.20;62.60;;;;;;5095262;28;20149;-58
2022/01/04 11:50:53;;;;;;;1.75;1.27;;;17.30;62.40;;;;;;5086950;28;20025;-58
2022/01/04 11:53:19;;;;;;;1.30;1.20;;;17.30;62.30;;;;;;5104974;28;20042;-58
2022/01/04 11:55:50;;;;;;;1.30;1.17;;;17.30;62.00;;;;;;5105054;28;20024;-58
2022/01/04 11:58:20;;;;;;;2.13;1.33;;;17.20;61.90;;;;;;5094066;28;20479;-58
2022/01/04 12:01:06;;;;;;;1.80;1.30;;;17.10;62.00;;;;;;5084475;28;20048;-58
2022/01/04 12:03:39;;;;;;;1.10;1.00;;;17.10;62.30;;;;;;5084515;28;20023;-58
2022/01/04 12:06:07;;;;;;;1.25;1.13;;;17.20;62.30;;;;;;5094862;28;20028;-58
2022/01/04 12:08:47;;;;;;;1.30;1.20;;;17.30;62.20;;;;;;5104131;28;20521;-58
2022/01/04 12:11:40;;;;;;;1.00;0.90;;;17.30;62.20;;;;;;5104364;28;20035;-58
2022/01/04 12:14:22;;;;;;;1.20;1.10;;;17.30;61.90;;;;;;5102625;28;20678;-59
2022/01/04 12:17:03;;;;;;;1.42;1.25;;;17.20;61.80;;;;;;5104435;28;20020;-58
2022/01/04 12:19:59;;;;;;;1.15;1.05;;;17.10;61.90;;;;;;5103542;28;20056;-58
2022/01/04 12:22:29;;;;;;;1.23;1.10;;;17.20;62.20;;;;;;5099404;28;20165;-58
2022/01/04 12:25:05;;;;;;;1.20;1.00;;;17.30;62.10;;;;;;5104360;28;20032;-58
2022/01/04 12:27:31;;;;;;;1.13;1.00;;;17.30;61.90;;;;;;5100492;28;20088;-58
2022/01/04 12:30:23;;;;;;;1.08;0.93;;;17.30;61.90;;;;;;5083765;28;20388;-58
2022/01/04 12:32:50;;;;;;;1.10;1.00;;;17.30;61.60;;;;;;5083642;28;20552;-58
2022/01/04 12:35:16;;;;;;;1.20;0.95;;;17.20;61.60;;;;;;5083344;28;20101;-58
2022/01/04 12:37:43;;;;;;;1.17;1.02;;;17.10;61.90;;;;;;5092090;28;20024;-58
2022/01/04 12:40:09;;;;;;;2.03;1.08;;;17.20;62.20;;;;;;5112840;28;20040;-58
2022/01/04 12:42:39;;;;;;;1.10;1.00;;;17.20;62.30;;;;;;5103918;28;20027;-58
2022/01/04 12:45:05;;;;;;;1.15;1.05;;;17.30;61.90;;;;;;5103078;28;20092;-58
2022/01/04 12:47:32;;;;;;;1.20;1.10;;;17.30;61.90;;;;;;5103687;28;20154;-58
2022/01/04 12:49:59;;;;;;;1.37;0.90;;;17.30;61.60;;;;;;5103928;28;20587;-58
2022/01/04 12:52:25;;;;;;;0.93;0.93;;;17.20;61.60;;;;;;5103938;28;20027;-58
2022/01/04 12:54:51;;;;;;;1.20;1.00;;;17.10;61.80;;;;;;5103628;28;20095;-58
2022/01/04 12:57:20;;;;;;;1.13;1.02;;;17.10;62.20;;;;;;5101539;28;20024;-58
2022/01/04 12:59:48;;;;;;;1.08;0.98;;;17.20;62.10;;;;;;5103481;28;20509;-58